sensor_id;sensor_type;location;lat;lon;timestamp;temperature;humidity
12156;DHT22;6141;49.092;8.516;2022-07-06T00:05:05;21.40;34.70
12156;DHT22;6141;49.092;8.516;2022-07-06T00:17:53;21.00;33.90
12156;DHT22;6141;49.092;8.516;2022-07-06T00:20:17;20.60;34.50
12156;DHT22;6141;49.092;8.516;2022-07-06T00:30:41;20.10;36.80
12156;DHT22;6141;49.092;8.516;2022-07-06T00:34:45;20.10;36.40
12156;DHT22;6141;49.092;8.516;2022-07-06T01:19:34;19.40;39.20
12156;DHT22;6141;49.092;8.516;2022-07-06T01:53:33;19.70;38.50
12156;DHT22;6141;49.092;8.516;2022-07-06T01:56:49;20.00;38.40
12156;DHT22;6141;49.092;8.516;2022-07-06T01:59:55;19.80;37.80
12156;DHT22;6141;49.092;8.516;2022-07-06T02:02:52;19.70;37.50
12156;DHT22;6141;49.092;8.516;2022-07-06T02:05:48;19.80;37.80
12156;DHT22;6141;49.092;8.516;2022-07-06T02:10:02;19.20;38.90
12156;DHT22;6141;49.092;8.516;2022-07-06T02:12:55;18.70;41.50
12156;DHT22;6141;49.092;8.516;2022-07-06T02:15:52;18.60;40.80
12156;DHT22;6141;49.092;8.516;2022-07-06T02:19:17;18.70;41.40
12156;DHT22;6141;49.092;8.516;2022-07-06T02:22:08;18.70;40.90
12156;DHT22;6141;49.092;8.516;2022-07-06T02:25:20;18.80;40.90
12156;DHT22;6141;49.092;8.516;2022-07-06T02:28:17;18.60;40.70
12156;DHT22;6141;49.092;8.516;2022-07-06T02:31:20;18.50;41.30
12156;DHT22;6141;49.092;8.516;2022-07-06T02:34:28;18.40;41.90
12156;DHT22;6141;49.092;8.516;2022-07-06T02:37:36;18.20;42.40
12156;DHT22;6141;49.092;8.516;2022-07-06T02:40:29;18.30;42.70
12156;DHT22;6141;49.092;8.516;2022-07-06T02:43:14;18.40;42.40
12156;DHT22;6141;49.092;8.516;2022-07-06T02:46:09;18.40;42.70
12156;DHT22;6141;49.092;8.516;2022-07-06T02:48:51;18.30;42.80
12156;DHT22;6141;49.092;8.516;2022-07-06T02:51:40;18.10;42.60
12156;DHT22;6141;49.092;8.516;2022-07-06T02:54:49;17.80;43.10
12156;DHT22;6141;49.092;8.516;2022-07-06T02:58:18;17.80;43.40
12156;DHT22;6141;49.092;8.516;2022-07-06T03:00:37;18.00;43.70
12156;DHT22;6141;49.092;8.516;2022-07-06T03:03:46;18.10;44.20
12156;DHT22;6141;49.092;8.516;2022-07-06T03:06:58;17.90;43.90
12156;DHT22;6141;49.092;8.516;2022-07-06T03:09:56;18.10;43.90
12156;DHT22;6141;49.092;8.516;2022-07-06T03:13:02;18.10;43.90
12156;DHT22;6141;49.092;8.516;2022-07-06T03:16:23;17.90;43.80
12156;DHT22;6141;49.092;8.516;2022-07-06T03:19:09;17.90;44.10
12156;DHT22;6141;49.092;8.516;2022-07-06T03:21:55;17.90;44.00
12156;DHT22;6141;49.092;8.516;2022-07-06T03:24:33;17.80;44.00
12156;DHT22;6141;49.092;8.516;2022-07-06T03:27:21;17.70;44.00
12156;DHT22;6141;49.092;8.516;2022-07-06T03:30:18;17.60;44.70
12156;DHT22;6141;49.092;8.516;2022-07-06T03:33:09;17.70;44.70
12156;DHT22;6141;49.092;8.516;2022-07-06T03:35:47;17.60;44.70
12156;DHT22;6141;49.092;8.516;2022-07-06T03:38:42;17.40;45.00
12156;DHT22;6141;49.092;8.516;2022-07-06T03:41:49;17.20;45.40
12156;DHT22;6141;49.092;8.516;2022-07-06T03:44:37;17.20;45.70
12156;DHT22;6141;49.092;8.516;2022-07-06T03:47:29;17.20;45.80
12156;DHT22;6141;49.092;8.516;2022-07-06T03:50:11;17.30;45.70
12156;DHT22;6141;49.092;8.516;2022-07-06T03:53:01;17.40;45.80
12156;DHT22;6141;49.092;8.516;2022-07-06T03:55:59;17.50;45.60
12156;DHT22;6141;49.092;8.516;2022-07-06T03:59:15;17.60;45.50
12156;DHT22;6141;49.092;8.516;2022-07-06T04:02:07;17.50;45.70
12156;DHT22;6141;49.092;8.516;2022-07-06T04:05:13;17.60;45.40
12156;DHT22;6141;49.092;8.516;2022-07-06T04:08:13;17.80;45.50
12156;DHT22;6141;49.092;8.516;2022-07-06T04:11:13;17.80;45.20
12156;DHT22;6141;49.092;8.516;2022-07-06T04:14:07;17.70;44.90
12156;DHT22;6141;49.092;8.516;2022-07-06T04:17:17;17.80;45.40
12156;DHT22;6141;49.092;8.516;2022-07-06T04:20:15;17.80;45.70
12156;DHT22;6141;49.092;8.516;2022-07-06T04:22:59;17.90;46.00
12156;DHT22;6141;49.092;8.516;2022-07-06T04:26:01;17.90;45.40
12156;DHT22;6141;49.092;8.516;2022-07-06T04:28:54;17.90;45.40
12156;DHT22;6141;49.092;8.516;2022-07-06T04:43:05;18.30;45.80
12156;DHT22;6141;49.092;8.516;2022-07-06T04:46:38;18.30;45.70
12156;DHT22;6141;49.092;8.516;2022-07-06T04:50:03;18.40;46.80
12156;DHT22;6141;49.092;8.516;2022-07-06T04:53:04;18.20;46.70
12156;DHT22;6141;49.092;8.516;2022-07-06T04:56:38;18.10;46.60
12156;DHT22;6141;49.092;8.516;2022-07-06T05:00:13;18.20;46.90
12156;DHT22;6141;49.092;8.516;2022-07-06T05:08:32;18.10;47.10
12156;DHT22;6141;49.092;8.516;2022-07-06T05:12:54;18.40;46.90
12156;DHT22;6141;49.092;8.516;2022-07-06T05:16:55;18.40;46.90
12156;DHT22;6141;49.092;8.516;2022-07-06T05:20:48;18.60;47.10
12156;DHT22;6141;49.092;8.516;2022-07-06T05:24:39;18.60;47.10
12156;DHT22;6141;49.092;8.516;2022-07-06T05:35:29;18.80;47.30
12156;DHT22;6141;49.092;8.516;2022-07-06T05:36:57;19.30;44.20
12156;DHT22;6141;49.092;8.516;2022-07-06T05:45:40;19.60;41.70
12156;DHT22;6141;49.092;8.516;2022-07-06T06:13:59;20.00;37.50
12156;DHT22;6141;49.092;8.516;2022-07-06T06:17:50;20.10;38.10
12156;DHT22;6141;49.092;8.516;2022-07-06T06:20:59;20.20;37.70
12156;DHT22;6141;49.092;8.516;2022-07-06T06:25:12;20.00;38.50
12156;DHT22;6141;49.092;8.516;2022-07-06T06:29:06;20.20;37.80
12156;DHT22;6141;49.092;8.516;2022-07-06T06:32:42;20.40;37.10
12156;DHT22;6141;49.092;8.516;2022-07-06T06:36:22;20.50;37.40
12156;DHT22;6141;49.092;8.516;2022-07-06T06:39:55;20.60;36.30
12156;DHT22;6141;49.092;8.516;2022-07-06T06:56:08;21.50;35.50
12156;DHT22;6141;49.092;8.516;2022-07-06T07:00:35;21.70;35.50
12156;DHT22;6141;49.092;8.516;2022-07-06T07:09:24;22.40;34.20
12156;DHT22;6141;49.092;8.516;2022-07-06T07:41:50;22.70;31.80
12156;DHT22;6141;49.092;8.516;2022-07-06T07:45:53;22.60;31.70
12156;DHT22;6141;49.092;8.516;2022-07-06T07:53:56;23.00;31.30
12156;DHT22;6141;49.092;8.516;2022-07-06T07:58:41;23.00;30.20
12156;DHT22;6141;49.092;8.516;2022-07-06T08:01:21;23.50;29.30
12156;DHT22;6141;49.092;8.516;2022-07-06T08:07:48;23.60;28.80
12156;DHT22;6141;49.092;8.516;2022-07-06T08:10:34;23.70;29.20
12156;DHT22;6141;49.092;8.516;2022-07-06T08:13:37;23.60;30.40
12156;DHT22;6141;49.092;8.516;2022-07-06T08:16:35;23.80;29.30
12156;DHT22;6141;49.092;8.516;2022-07-06T08:19:24;23.70;28.10
12156;DHT22;6141;49.092;8.516;2022-07-06T08:22:11;23.60;29.80
12156;DHT22;6141;49.092;8.516;2022-07-06T08:25:17;23.60;29.50
12156;DHT22;6141;49.092;8.516;2022-07-06T08:27:55;23.60;29.40
12156;DHT22;6141;49.092;8.516;2022-07-06T08:30:49;23.60;30.70
12156;DHT22;6141;49.092;8.516;2022-07-06T08:33:22;23.70;29.30
12156;DHT22;6141;49.092;8.516;2022-07-06T08:36:17;23.80;28.50
12156;DHT22;6141;49.092;8.516;2022-07-06T08:39:07;23.70;28.50
12156;DHT22;6141;49.092;8.516;2022-07-06T08:42:13;23.80;28.80
12156;DHT22;6141;49.092;8.516;2022-07-06T08:45:10;23.90;30.10
12156;DHT22;6141;49.092;8.516;2022-07-06T08:48:56;24.10;29.00
12156;DHT22;6141;49.092;8.516;2022-07-06T08:51:36;24.40;28.20
12156;DHT22;6141;49.092;8.516;2022-07-06T08:55:12;24.50;27.70
12156;DHT22;6141;49.092;8.516;2022-07-06T08:57:59;24.60;27.80
12156;DHT22;6141;49.092;8.516;2022-07-06T09:01:06;24.50;27.70
12156;DHT22;6141;49.092;8.516;2022-07-06T09:07:36;24.50;27.20
12156;DHT22;6141;49.092;8.516;2022-07-06T09:11:10;24.50;27.70
12156;DHT22;6141;49.092;8.516;2022-07-06T09:14:47;24.60;28.10
12156;DHT22;6141;49.092;8.516;2022-07-06T09:17:45;25.00;26.20
12156;DHT22;6141;49.092;8.516;2022-07-06T09:20:26;24.90;26.70
12156;DHT22;6141;49.092;8.516;2022-07-06T09:23:10;24.80;25.90
12156;DHT22;6141;49.092;8.516;2022-07-06T09:30:23;24.90;28.00
12156;DHT22;6141;49.092;8.516;2022-07-06T09:34:02;24.70;26.70
12156;DHT22;6141;49.092;8.516;2022-07-06T09:37:16;24.70;26.80
12156;DHT22;6141;49.092;8.516;2022-07-06T09:39:54;24.70;26.50
12156;DHT22;6141;49.092;8.516;2022-07-06T09:42:48;24.70;27.90
12156;DHT22;6141;49.092;8.516;2022-07-06T09:45:50;24.80;25.20
12156;DHT22;6141;49.092;8.516;2022-07-06T09:57:00;25.20;26.70
12156;DHT22;6141;49.092;8.516;2022-07-06T10:00:25;25.60;27.30
12156;DHT22;6141;49.092;8.516;2022-07-06T10:04:20;25.70;24.00
12156;DHT22;6141;49.092;8.516;2022-07-06T10:08:04;25.60;25.00
12156;DHT22;6141;49.092;8.516;2022-07-06T10:11:01;25.40;24.50
12156;DHT22;6141;49.092;8.516;2022-07-06T10:14:33;25.10;26.50
12156;DHT22;6141;49.092;8.516;2022-07-06T10:17:27;25.20;26.00
12156;DHT22;6141;49.092;8.516;2022-07-06T10:20:49;25.30;24.80
12156;DHT22;6141;49.092;8.516;2022-07-06T10:24:21;25.30;24.10
12156;DHT22;6141;49.092;8.516;2022-07-06T10:28:28;25.20;24.70
12156;DHT22;6141;49.092;8.516;2022-07-06T10:31:43;25.30;25.00
12156;DHT22;6141;49.092;8.516;2022-07-06T10:35:07;25.60;27.10
12156;DHT22;6141;49.092;8.516;2022-07-06T10:38:26;25.60;23.80
12156;DHT22;6141;49.092;8.516;2022-07-06T10:42:28;25.60;25.00
12156;DHT22;6141;49.092;8.516;2022-07-06T10:48:50;25.80;24.30
12156;DHT22;6141;49.092;8.516;2022-07-06T10:52:03;25.90;25.00
12156;DHT22;6141;49.092;8.516;2022-07-06T11:01:28;25.60;23.80
12156;DHT22;6141;49.092;8.516;2022-07-06T11:04:33;25.50;24.40
12156;DHT22;6141;49.092;8.516;2022-07-06T11:07:20;25.60;23.10
12156;DHT22;6141;49.092;8.516;2022-07-06T11:11:16;25.30;23.70
12156;DHT22;6141;49.092;8.516;2022-07-06T11:14:05;25.50;25.10
12156;DHT22;6141;49.092;8.516;2022-07-06T11:17:22;25.70;23.60
12156;DHT22;6141;49.092;8.516;2022-07-06T11:20:21;26.00;25.00
12156;DHT22;6141;49.092;8.516;2022-07-06T11:23:07;25.70;22.80
12156;DHT22;6141;49.092;8.516;2022-07-06T11:25:53;25.60;24.00
12156;DHT22;6141;49.092;8.516;2022-07-06T11:28:47;25.50;24.70
12156;DHT22;6141;49.092;8.516;2022-07-06T11:31:44;25.50;23.80
12156;DHT22;6141;49.092;8.516;2022-07-06T11:34:30;25.50;23.60
12156;DHT22;6141;49.092;8.516;2022-07-06T11:37:26;25.80;24.10
12156;DHT22;6141;49.092;8.516;2022-07-06T11:40:06;26.10;23.40
12156;DHT22;6141;49.092;8.516;2022-07-06T11:42:38;26.30;22.70
12156;DHT22;6141;49.092;8.516;2022-07-06T11:45:34;26.30;23.50
12156;DHT22;6141;49.092;8.516;2022-07-06T11:48:19;26.50;22.70
12156;DHT22;6141;49.092;8.516;2022-07-06T11:54:25;26.10;23.40
12156;DHT22;6141;49.092;8.516;2022-07-06T11:57:42;25.90;23.20
12156;DHT22;6141;49.092;8.516;2022-07-06T12:00:42;26.00;23.40
12156;DHT22;6141;49.092;8.516;2022-07-06T12:03:34;26.10;22.00
12156;DHT22;6141;49.092;8.516;2022-07-06T12:06:22;26.20;23.50
12156;DHT22;6141;49.092;8.516;2022-07-06T12:09:25;26.00;23.40
12156;DHT22;6141;49.092;8.516;2022-07-06T12:12:22;25.60;23.20
12156;DHT22;6141;49.092;8.516;2022-07-06T12:15:45;25.60;23.10
12156;DHT22;6141;49.092;8.516;2022-07-06T12:19:32;25.50;23.70
12156;DHT22;6141;49.092;8.516;2022-07-06T12:26:55;26.10;22.40
12156;DHT22;6141;49.092;8.516;2022-07-06T12:41:00;25.70;23.20
12156;DHT22;6141;49.092;8.516;2022-07-06T12:48:25;26.10;23.10
12156;DHT22;6141;49.092;8.516;2022-07-06T12:52:15;26.00;23.40
12156;DHT22;6141;49.092;8.516;2022-07-06T12:56:17;26.30;23.60
12156;DHT22;6141;49.092;8.516;2022-07-06T13:55:42;26.60;19.00
12156;DHT22;6141;49.092;8.516;2022-07-06T13:59:51;27.20;19.60
12156;DHT22;6141;49.092;8.516;2022-07-06T14:02:47;27.50;17.80
12156;DHT22;6141;49.092;8.516;2022-07-06T14:05:22;27.40;18.40
12156;DHT22;6141;49.092;8.516;2022-07-06T14:08:06;27.30;17.60
12156;DHT22;6141;49.092;8.516;2022-07-06T14:10:58;27.20;18.70
12156;DHT22;6141;49.092;8.516;2022-07-06T14:13:46;27.30;16.70
12156;DHT22;6141;49.092;8.516;2022-07-06T14:16:54;27.10;17.20
12156;DHT22;6141;49.092;8.516;2022-07-06T14:19:31;26.70;16.30
12156;DHT22;6141;49.092;8.516;2022-07-06T14:22:15;26.70;16.90
12156;DHT22;6141;49.092;8.516;2022-07-06T14:24:45;27.00;18.60
12156;DHT22;6141;49.092;8.516;2022-07-06T14:27:22;27.40;17.70
12156;DHT22;6141;49.092;8.516;2022-07-06T14:29:53;27.40;17.30
12156;DHT22;6141;49.092;8.516;2022-07-06T14:32:26;27.40;17.60
12156;DHT22;6141;49.092;8.516;2022-07-06T14:35:17;27.30;16.20
12156;DHT22;6141;49.092;8.516;2022-07-06T14:37:59;27.20;16.40
12156;DHT22;6141;49.092;8.516;2022-07-06T14:41:18;27.10;18.60
12156;DHT22;6141;49.092;8.516;2022-07-06T14:44:07;27.10;17.70
12156;DHT22;6141;49.092;8.516;2022-07-06T14:47:13;27.00;16.70
12156;DHT22;6141;49.092;8.516;2022-07-06T14:49:57;26.80;18.50
12156;DHT22;6141;49.092;8.516;2022-07-06T14:53:00;26.90;18.20
12156;DHT22;6141;49.092;8.516;2022-07-06T14:55:52;26.80;16.50
12156;DHT22;6141;49.092;8.516;2022-07-06T15:02:19;26.70;18.10
12156;DHT22;6141;49.092;8.516;2022-07-06T15:05:17;26.40;17.70
12156;DHT22;6141;49.092;8.516;2022-07-06T15:08:18;26.60;18.30
12156;DHT22;6141;49.092;8.516;2022-07-06T15:11:20;26.70;16.70
12156;DHT22;6141;49.092;8.516;2022-07-06T15:14:37;26.60;18.30
12156;DHT22;6141;49.092;8.516;2022-07-06T15:18:20;26.60;17.00
12156;DHT22;6141;49.092;8.516;2022-07-06T15:21:37;26.50;18.00
12156;DHT22;6141;49.092;8.516;2022-07-06T15:24:55;26.60;17.50
12156;DHT22;6141;49.092;8.516;2022-07-06T15:36:34;26.50;17.00
12156;DHT22;6141;49.092;8.516;2022-07-06T15:40:02;26.40;17.20
12156;DHT22;6141;49.092;8.516;2022-07-06T15:43:07;26.20;15.80
12156;DHT22;6141;49.092;8.516;2022-07-06T15:46:26;26.20;16.90
12156;DHT22;6141;49.092;8.516;2022-07-06T15:50:27;26.30;16.60
12156;DHT22;6141;49.092;8.516;2022-07-06T15:53:24;26.50;16.70
12156;DHT22;6141;49.092;8.516;2022-07-06T15:57:02;26.70;17.10
12156;DHT22;6141;49.092;8.516;2022-07-06T16:00:00;26.60;15.00
12156;DHT22;6141;49.092;8.516;2022-07-06T16:03:22;26.20;15.80
12156;DHT22;6141;49.092;8.516;2022-07-06T16:07:03;26.30;16.20
12156;DHT22;6141;49.092;8.516;2022-07-06T16:48:13;25.70;17.70
12156;DHT22;6141;49.092;8.516;2022-07-06T16:51:48;25.70;16.80
12156;DHT22;6141;49.092;8.516;2022-07-06T16:57:55;25.50;17.70
12156;DHT22;6141;49.092;8.516;2022-07-06T17:05:20;25.60;17.80
12156;DHT22;6141;49.092;8.516;2022-07-06T17:08:43;25.60;17.60
12156;DHT22;6141;49.092;8.516;2022-07-06T17:11:39;25.60;17.70
12156;DHT22;6141;49.092;8.516;2022-07-06T17:14:32;25.50;17.70
12156;DHT22;6141;49.092;8.516;2022-07-06T17:20:19;25.30;17.60
12156;DHT22;6141;49.092;8.516;2022-07-06T17:23:44;25.30;18.80
12156;DHT22;6141;49.092;8.516;2022-07-06T17:26:52;25.30;18.70
12156;DHT22;6141;49.092;8.516;2022-07-06T17:29:27;25.10;19.10
12156;DHT22;6141;49.092;8.516;2022-07-06T18:17:11;24.70;19.90
12156;DHT22;6141;49.092;8.516;2022-07-06T18:29:47;24.70;19.70
12156;DHT22;6141;49.092;8.516;2022-07-06T19:23:30;24.50;20.30
12156;DHT22;6141;49.092;8.516;2022-07-06T19:31:35;24.30;21.50
12156;DHT22;6141;49.092;8.516;2022-07-06T19:34:35;24.40;21.20
12156;DHT22;6141;49.092;8.516;2022-07-06T19:40:40;24.30;22.30
12156;DHT22;6141;49.092;8.516;2022-07-06T19:42:28;24.10;22.10
12156;DHT22;6141;49.092;8.516;2022-07-06T19:46:23;23.50;22.80
12156;DHT22;6141;49.092;8.516;2022-07-06T19:49:50;23.00;24.40
12156;DHT22;6141;49.092;8.516;2022-07-06T19:53:02;22.50;25.40
12156;DHT22;6141;49.092;8.516;2022-07-06T19:56:18;22.10;25.80
12156;DHT22;6141;49.092;8.516;2022-07-06T20:00:01;21.80;25.70
12156;DHT22;6141;49.092;8.516;2022-07-06T20:03:28;21.60;27.20
12156;DHT22;6141;49.092;8.516;2022-07-06T20:31:57;20.50;29.80
12156;DHT22;6141;49.092;8.516;2022-07-06T20:37:05;20.30;30.30
12156;DHT22;6141;49.092;8.516;2022-07-06T20:45:30;20.00;30.90
12156;DHT22;6141;49.092;8.516;2022-07-06T21:22:38;18.90;35.00
12156;DHT22;6141;49.092;8.516;2022-07-06T21:26:37;19.00;34.60
12156;DHT22;6141;49.092;8.516;2022-07-06T21:30:18;18.70;35.70
12156;DHT22;6141;49.092;8.516;2022-07-06T21:33:36;18.40;36.90
12156;DHT22;6141;49.092;8.516;2022-07-06T21:37:10;18.60;37.30
12156;DHT22;6141;49.092;8.516;2022-07-06T21:40:26;18.50;37.30
12156;DHT22;6141;49.092;8.516;2022-07-06T21:43:38;18.40;36.40
12156;DHT22;6141;49.092;8.516;2022-07-06T21:46:42;18.30;37.60
12156;DHT22;6141;49.092;8.516;2022-07-06T21:50:23;18.30;37.90
12156;DHT22;6141;49.092;8.516;2022-07-06T21:54:04;18.30;38.00
12156;DHT22;6141;49.092;8.516;2022-07-06T22:07:57;18.10;37.80
12156;DHT22;6141;49.092;8.516;2022-07-06T22:17:06;18.20;38.40
